createdAt,value
2019-05-02T00:00:10.058Z,90.00
2019-05-02T00:02:39.037Z,89.50
2019-05-02T00:05:09.490Z,88.70
2019-05-02T00:07:38.625Z,88.80
2019-05-02T00:10:12.029Z,88.70
2019-05-02T00:12:40.656Z,89.00
2019-05-02T00:15:09.382Z,88.60
2019-05-02T00:17:38.024Z,88.20
2019-05-02T00:20:08.509Z,86.70
2019-05-02T00:22:37.148Z,87.00
2019-05-02T00:25:11.109Z,87.30
2019-05-02T00:27:37.754Z,86.70
2019-05-02T00:30:08.821Z,86.50
2019-05-02T00:32:37.517Z,86.50
2019-05-02T00:35:06.808Z,86.20
2019-05-02T00:37:35.746Z,86.80
2019-05-02T00:40:06.738Z,86.40
2019-05-02T00:42:35.302Z,86.70
2019-05-02T00:45:04.595Z,86.00
2019-05-02T00:47:34.802Z,86.70
2019-05-02T00:50:06.149Z,86.30
2019-05-02T00:52:36.655Z,86.90
2019-05-02T00:55:05.854Z,87.20
2019-05-02T00:57:34.421Z,87.90
2019-05-02T01:00:03.804Z,88.90
2019-05-02T01:02:35.836Z,88.70
2019-05-02T01:05:05.746Z,89.30
2019-05-02T01:07:34.373Z,90.00
2019-05-02T01:10:03.580Z,90.10
2019-05-02T01:12:32.174Z,90.30
2019-05-02T01:15:03.401Z,90.50
2019-05-02T01:17:32.175Z,90.90
2019-05-02T01:20:00.749Z,91.20
2019-05-02T01:22:29.317Z,91.20
2019-05-02T01:24:57.870Z,91.20
2019-05-02T01:27:27.998Z,91.20
2019-05-02T01:30:05.645Z,91.20
2019-05-02T01:32:35.694Z,90.90
2019-05-02T01:35:07.447Z,91.30
2019-05-02T01:37:54.974Z,91.60
2019-05-02T01:40:23.891Z,91.80
2019-05-02T01:42:52.454Z,92.00
2019-05-02T01:45:21.092Z,92.30
2019-05-02T01:47:49.661Z,92.50
2019-05-02T01:50:18.214Z,92.60
2019-05-02T01:52:46.781Z,92.70
2019-05-02T01:55:17.171Z,92.70
2019-05-02T01:57:46.033Z,92.50
2019-05-02T02:00:14.711Z,92.60
2019-05-02T02:02:43.531Z,92.80
2019-05-02T02:05:12.369Z,93.00
2019-05-02T02:07:40.974Z,93.10
2019-05-02T02:10:09.886Z,93.00
2019-05-02T02:12:42.976Z,92.90
2019-05-02T02:15:08.711Z,92.70
2019-05-02T02:17:37.258Z,92.40
2019-05-02T02:20:15.652Z,92.20
2019-05-02T02:22:45.869Z,92.00
2019-05-02T02:25:26.653Z,92.10
2019-05-02T02:27:59.636Z,91.90
2019-05-02T02:30:26.707Z,91.70
2019-05-02T02:33:00.691Z,92.00
2019-05-02T02:35:26.072Z,92.10
2019-05-02T02:37:55.722Z,92.20
2019-05-02T02:40:32.890Z,92.20
2019-05-02T02:42:54.730Z,92.20
2019-05-02T02:45:39.845Z,92.00
2019-05-02T02:48:08.459Z,92.00
2019-05-02T02:50:43.120Z,92.40
2019-05-02T02:53:07.505Z,92.70
2019-05-02T02:55:36.129Z,92.80
2019-05-02T02:58:06.616Z,93.40
2019-05-02T03:00:41.414Z,93.90
2019-05-02T03:03:06.206Z,94.50
2019-05-02T03:05:34.843Z,94.80
2019-05-02T03:08:05.450Z,95.10
2019-05-02T03:10:39.551Z,94.90
2019-05-02T03:13:14.887Z,94.80
2019-05-02T03:15:43.413Z,94.40
2019-05-02T03:18:11.963Z,94.20
2019-05-02T03:20:42.045Z,93.80
2019-05-02T03:23:14.981Z,93.60
2019-05-02T03:25:50.381Z,93.40
2019-05-02T03:28:17.368Z,93.20
2019-05-02T03:30:41.629Z,93.20
2019-05-02T03:33:11.937Z,93.40
2019-05-02T03:35:44.749Z,93.40
2019-05-02T03:38:10.631Z,93.00
2019-05-02T03:40:41.305Z,93.40
2019-05-02T03:43:09.467Z,94.00
2019-05-02T03:45:39.820Z,94.40
2019-05-02T03:48:08.559Z,94.90
2019-05-02T03:50:37.855Z,95.20
2019-05-02T03:53:06.390Z,95.70
2019-05-02T03:55:35.369Z,96.20
2019-05-02T03:58:13.198Z,96.60
2019-05-02T04:00:34.265Z,96.70
2019-05-02T04:03:03.893Z,96.90
2019-05-02T04:05:33.676Z,96.80
2019-05-02T04:08:05.492Z,96.70
2019-05-02T04:10:46.157Z,96.30
2019-05-02T04:13:15.645Z,96.10
2019-05-02T04:15:45.556Z,96.20
2019-05-02T04:18:15.196Z,96.20
2019-05-02T04:20:49.763Z,96.40
2019-05-02T04:23:21.422Z,96.40
2019-05-02T04:25:50.314Z,96.10
2019-05-02T04:28:19.468Z,95.80
2019-05-02T04:30:51.189Z,95.60
2019-05-02T04:33:18.234Z,95.30
2019-05-02T04:35:46.790Z,95.20
2019-05-02T04:38:21.212Z,95.40
2019-05-02T04:40:48.910Z,95.50
2019-05-02T04:43:18.233Z,95.50
2019-05-02T04:45:55.711Z,95.40
2019-05-02T04:48:18.376Z,95.50
2019-05-02T04:50:48.381Z,95.50
2019-05-02T04:53:18.886Z,95.70
2019-05-02T04:55:52.061Z,96.10
2019-05-02T04:58:23.989Z,96.00
2019-05-02T05:00:53.649Z,96.50
2019-05-02T05:03:21.029Z,96.60
2019-05-02T05:05:48.344Z,96.70
2019-05-02T05:08:26.031Z,96.60
2019-05-02T05:10:47.987Z,96.50
2019-05-02T05:13:21.758Z,96.20
2019-05-02T05:15:51.285Z,95.90
2019-05-02T05:18:17.658Z,95.50
2019-05-02T05:20:52.914Z,95.40
2019-05-02T05:23:21.316Z,94.70
2019-05-02T05:25:50.784Z,93.90
2019-05-02T05:28:20.595Z,93.40
2019-05-02T05:30:49.637Z,93.20
2019-05-02T05:33:19.348Z,92.90
2019-05-02T05:35:52.319Z,90.40
2019-05-02T05:38:18.264Z,90.70
2019-05-02T05:40:47.944Z,92.10
2019-05-02T05:43:20.278Z,92.20
2019-05-02T05:45:53.483Z,90.10
2019-05-02T05:48:18.409Z,90.40
2019-05-02T05:50:47.760Z,89.20
2019-05-02T05:53:20.598Z,90.20
2019-05-02T05:55:47.374Z,90.10
2019-05-02T05:58:18.675Z,88.30
2019-05-02T06:00:53.912Z,86.30
2019-05-02T06:03:17.913Z,84.30
2019-05-02T06:05:47.746Z,86.00
2019-05-02T06:08:18.341Z,88.50
2019-05-02T06:10:46.650Z,86.30
2019-05-02T06:13:15.214Z,85.60
2019-05-02T06:15:45.950Z,86.10
2019-05-02T06:18:13.973Z,83.30
2019-05-02T06:20:42.514Z,81.30
2019-05-02T06:23:11.140Z,81.50
2019-05-02T06:25:42.361Z,78.00
2019-05-02T06:28:09.848Z,77.70
2019-05-02T06:30:38.434Z,76.60
2019-05-02T06:33:07.205Z,74.60
2019-05-02T06:35:35.754Z,74.40
2019-05-02T06:38:04.453Z,74.30
2019-05-02T06:40:33.002Z,71.40
2019-05-02T06:43:04.444Z,70.10
2019-05-02T06:45:32.194Z,66.30
2019-05-02T06:48:01.910Z,65.90
2019-05-02T06:50:33.442Z,60.70
2019-05-02T06:53:04.317Z,58.50
2019-05-02T06:55:36.234Z,57.30
2019-05-02T06:58:02.870Z,54.30
2019-05-02T07:00:39.926Z,55.30
2019-05-02T07:03:04.913Z,54.40
2019-05-02T07:05:31.810Z,52.10
2019-05-02T07:08:00.411Z,51.00
2019-05-02T07:10:37.888Z,51.60
2019-05-02T07:13:10.009Z,51.60
2019-05-02T07:15:43.052Z,51.20
2019-05-02T07:18:16.306Z,49.40
2019-05-02T07:20:44.773Z,47.10
2019-05-02T07:23:16.160Z,45.70
2019-05-02T07:25:43.948Z,42.90
2019-05-02T07:28:13.013Z,43.10
2019-05-02T07:30:41.653Z,39.90
2019-05-02T07:33:10.282Z,38.70
2019-05-02T07:35:38.850Z,37.00
2019-05-02T07:38:07.414Z,35.50
2019-05-02T07:40:35.997Z,33.50
2019-05-02T07:43:04.669Z,33.20
2019-05-02T07:45:33.159Z,30.70
2019-05-02T07:48:01.772Z,30.00
2019-05-02T07:50:30.374Z,29.20
2019-05-02T07:52:59.207Z,28.90
2019-05-02T07:55:30.509Z,27.90
2019-05-02T07:58:01.866Z,27.70
2019-05-02T08:00:32.183Z,28.20
2019-05-02T08:02:59.422Z,27.70
2019-05-02T08:05:27.982Z,27.20
2019-05-02T08:07:56.525Z,26.40
2019-05-02T08:10:25.165Z,26.30
2019-05-02T08:12:53.629Z,25.50
2019-05-02T08:15:24.486Z,25.30
2019-05-02T08:17:53.772Z,25.30
2019-05-02T08:20:22.607Z,25.60
2019-05-02T08:22:51.090Z,24.80
2019-05-02T08:25:19.790Z,24.80
2019-05-02T08:28:04.546Z,23.90
2019-05-02T08:30:35.387Z,24.30
2019-05-02T08:33:04.569Z,23.10
2019-05-02T08:35:33.833Z,23.90
2019-05-02T08:38:02.379Z,23.10
2019-05-02T08:40:30.965Z,23.20
2019-05-02T08:43:03.495Z,23.00
2019-05-02T08:45:33.123Z,23.40
2019-05-02T08:48:04.847Z,22.10
2019-05-02T08:50:31.879Z,22.70
2019-05-02T08:53:00.662Z,22.10
2019-05-02T08:55:30.055Z,22.50
2019-05-02T08:57:58.570Z,22.70
2019-05-02T09:00:27.133Z,21.90
2019-05-02T09:02:57.166Z,21.80
2019-05-02T09:05:26.255Z,22.00
2019-05-02T09:07:55.082Z,22.10
2019-05-02T09:10:23.650Z,22.00
2019-05-02T09:12:52.228Z,21.80
2019-05-02T09:15:22.311Z,21.10
2019-05-02T09:17:56.327Z,21.90
2019-05-02T09:20:23.655Z,21.40
2019-05-02T09:22:55.850Z,22.50
2019-05-02T09:25:22.475Z,21.80
2019-05-02T09:27:52.629Z,22.90
2019-05-02T09:30:24.501Z,22.90
2019-05-02T09:32:52.305Z,22.40
2019-05-02T09:35:22.939Z,21.90
2019-05-02T09:37:52.296Z,23.00
2019-05-02T09:40:22.172Z,23.20
2019-05-02T09:42:53.265Z,21.50
2019-05-02T09:45:23.077Z,21.90
2019-05-02T09:48:01.524Z,21.60
2019-05-02T09:50:29.521Z,21.10
2019-05-02T09:52:53.858Z,22.90
2019-05-02T09:55:22.706Z,22.50
2019-05-02T09:57:51.941Z,23.10
2019-05-02T10:00:36.248Z,22.50
2019-05-02T10:03:04.654Z,21.80
2019-05-02T10:05:33.200Z,22.20
2019-05-02T10:08:03.129Z,22.10
2019-05-02T10:10:37.180Z,22.20
2019-05-02T10:13:03.257Z,22.10
2019-05-02T10:15:32.724Z,23.40
2019-05-02T10:18:10.268Z,23.20
2019-05-02T10:20:36.132Z,21.80
2019-05-02T10:23:02.378Z,22.10
2019-05-02T10:25:38.555Z,23.40
2019-05-02T10:28:02.105Z,23.90
2019-05-02T10:30:35.589Z,24.10
2019-05-02T10:33:03.014Z,25.40
2019-05-02T10:35:45.116Z,25.50
2019-05-02T10:38:18.011Z,27.30
2019-05-02T10:40:48.069Z,27.70
2019-05-02T10:43:14.210Z,27.60
2019-05-02T10:45:47.427Z,28.60
2019-05-02T10:48:24.975Z,28.20
2019-05-02T10:50:52.316Z,29.60
2019-05-02T10:53:21.917Z,30.00
2019-05-02T10:55:52.347Z,30.40
2019-05-02T10:58:25.825Z,29.50
2019-05-02T11:00:52.333Z,29.20
2019-05-02T11:03:32.003Z,30.00
2019-05-02T11:06:07.504Z,29.80
2019-05-02T11:08:36.766Z,29.60
2019-05-02T11:11:05.953Z,29.00
2019-05-02T11:13:34.994Z,29.10
2019-05-02T11:16:17.220Z,30.00
2019-05-02T11:19:03.458Z,30.50
2019-05-02T11:21:32.278Z,29.60
2019-05-02T11:24:02.372Z,31.10
2019-05-02T11:26:32.394Z,31.10
2019-05-02T11:29:03.005Z,30.20
2019-05-02T11:31:32.441Z,30.80
2019-05-02T11:34:02.068Z,32.00
2019-05-02T11:36:32.582Z,33.10
2019-05-02T11:39:10.764Z,32.30
2019-05-02T11:41:31.771Z,32.70
2019-05-02T11:44:02.768Z,32.00
2019-05-02T11:46:32.874Z,32.50
2019-05-02T11:49:02.437Z,35.50
2019-05-02T11:51:32.696Z,34.10
2019-05-02T11:54:07.607Z,34.00
2019-05-02T11:56:32.973Z,33.20
2019-05-02T11:59:02.793Z,32.90
2019-05-02T12:01:38.923Z,33.80
2019-05-02T12:04:03.017Z,33.70
2019-05-02T12:06:33.151Z,33.10
2019-05-02T12:09:02.188Z,34.70
2019-05-02T12:11:32.346Z,34.60
2019-05-02T12:14:01.777Z,33.00
2019-05-02T12:16:32.163Z,34.00
2019-05-02T12:19:09.493Z,32.50
2019-05-02T12:21:32.475Z,32.60
2019-05-02T12:24:02.284Z,32.70
2019-05-02T12:26:32.338Z,35.00
2019-05-02T12:29:02.572Z,33.80
2019-05-02T12:31:32.580Z,33.60
2019-05-02T12:34:02.837Z,33.40
2019-05-02T12:36:33.346Z,34.10
2019-05-02T12:39:02.453Z,33.90
2019-05-02T12:41:32.885Z,33.70
2019-05-02T12:44:02.239Z,34.10
2019-05-02T12:46:31.777Z,33.10
2019-05-02T12:49:02.570Z,34.40
2019-05-02T12:51:32.023Z,35.10
2019-05-02T12:54:02.229Z,34.90
2019-05-02T12:56:32.369Z,34.00
2019-05-02T12:59:02.431Z,32.50
2019-05-02T13:01:32.943Z,33.50
2019-05-02T13:04:03.154Z,34.50
2019-05-02T13:06:32.750Z,35.00
2019-05-02T13:09:03.101Z,34.40
2019-05-02T13:11:41.300Z,35.70
2019-05-02T13:14:18.836Z,35.60
2019-05-02T13:16:38.524Z,35.50
2019-05-02T13:19:07.260Z,34.10
2019-05-02T13:21:50.407Z,34.30
2019-05-02T13:24:18.218Z,34.50
2019-05-02T13:26:51.419Z,33.50
2019-05-02T13:29:17.361Z,34.80
2019-05-02T13:31:52.250Z,34.30
2019-05-02T13:34:22.418Z,34.30
2019-05-02T13:36:52.639Z,35.20
2019-05-02T13:39:23.084Z,34.60
2019-05-02T13:41:52.171Z,35.40
2019-05-02T13:44:22.813Z,35.50
2019-05-02T13:46:53.471Z,34.80
2019-05-02T13:49:22.064Z,36.40
2019-05-02T13:51:52.143Z,36.60
2019-05-02T13:54:22.096Z,35.00
2019-05-02T13:56:52.874Z,35.50
2019-05-02T13:59:22.267Z,34.50
2019-05-02T14:01:52.289Z,35.20
2019-05-02T14:04:23.221Z,34.30
2019-05-02T14:06:52.840Z,35.20
2019-05-02T14:09:23.167Z,35.30
2019-05-02T14:12:05.341Z,35.90
2019-05-02T14:14:33.824Z,36.10
2019-05-02T14:17:03.048Z,36.70
2019-05-02T14:19:32.005Z,37.60
2019-05-02T14:22:00.960Z,37.70
2019-05-02T14:24:32.235Z,38.20
2019-05-02T14:27:02.593Z,38.30
2019-05-02T14:29:32.983Z,36.40
2019-05-02T14:32:02.741Z,36.90
2019-05-02T14:34:42.630Z,37.20
2019-05-02T14:37:11.843Z,36.60
2019-05-02T14:39:41.643Z,36.20
2019-05-02T14:42:15.287Z,37.10
2019-05-02T14:45:01.324Z,36.90
2019-05-02T14:47:18.228Z,37.40
2019-05-02T14:49:42.934Z,38.40
2019-05-02T14:52:12.609Z,37.30
2019-05-02T14:54:43.968Z,37.30
2019-05-02T14:57:17.167Z,38.20
2019-05-02T14:59:45.833Z,37.80
2019-05-02T15:02:16.191Z,38.60
2019-05-02T15:04:48.867Z,38.50
2019-05-02T15:07:17.707Z,37.70
2019-05-02T15:09:45.715Z,38.10
2019-05-02T15:12:18.729Z,37.30
2019-05-02T15:14:44.445Z,36.90
2019-05-02T15:17:12.965Z,37.30
2019-05-02T15:19:42.757Z,37.70
2019-05-02T15:22:12.467Z,37.60
2019-05-02T15:24:42.366Z,42.60
2019-05-02T15:27:16.571Z,45.10
2019-05-02T15:29:41.986Z,47.30
2019-05-02T15:32:12.753Z,48.90
2019-05-02T15:34:58.901Z,50.70
2019-05-02T15:37:28.205Z,52.40
2019-05-02T15:42:26.907Z,57.90
2019-05-02T15:44:57.026Z,60.80
2019-05-02T15:47:25.726Z,64.40
2019-05-02T15:49:54.353Z,68.00
2019-05-02T15:52:27.766Z,70.80
2019-05-02T15:54:59.571Z,73.50
2019-05-02T15:57:25.299Z,76.70
2019-05-02T15:59:54.156Z,80.00
2019-05-02T16:02:26.521Z,83.40
2019-05-02T16:04:56.901Z,86.60
2019-05-02T16:07:25.099Z,89.10
2019-05-02T16:09:59.322Z,90.80
2019-05-02T16:12:27.243Z,91.30
2019-05-02T16:14:54.306Z,91.40
2019-05-02T16:17:25.733Z,92.40
2019-05-02T16:19:58.637Z,92.90
2019-05-02T16:22:26.293Z,92.80
2019-05-02T16:24:56.620Z,93.20
2019-05-02T16:27:29.089Z,93.40
2019-05-02T16:29:58.349Z,93.70
2019-05-02T16:32:35.761Z,93.60
2019-05-02T16:35:12.360Z,94.60
2019-05-02T16:37:37.086Z,94.30
2019-05-02T16:40:08.027Z,94.10
2019-05-02T16:42:37.129Z,94.50
2019-05-02T16:45:11.801Z,94.20
2019-05-02T16:47:42.239Z,94.00
2019-05-02T16:50:12.212Z,94.30
2019-05-02T16:52:43.719Z,94.20
2019-05-02T16:55:13.686Z,93.90
2019-05-02T16:57:42.434Z,93.00
2019-05-02T17:00:14.049Z,93.70
2019-05-02T17:02:46.147Z,94.00
2019-05-02T17:05:13.144Z,94.30
2019-05-02T17:07:43.878Z,94.00
2019-05-02T17:10:19.804Z,93.00
2019-05-02T17:12:52.928Z,92.80
2019-05-02T17:15:35.144Z,92.70
2019-05-02T17:18:04.921Z,92.50
2019-05-02T17:20:32.714Z,92.40
2019-05-02T17:23:03.406Z,91.90
2019-05-02T17:25:32.216Z,91.90
2019-05-02T17:28:05.760Z,92.50
2019-05-02T17:30:38.627Z,92.10
2019-05-02T17:33:01.876Z,92.10
2019-05-02T17:35:32.442Z,92.80
2019-05-02T17:38:02.574Z,92.60
2019-05-02T17:40:54.484Z,92.50
2019-05-02T17:43:22.808Z,92.60
2019-05-02T17:45:51.328Z,92.70
2019-05-02T17:48:19.955Z,92.50
2019-05-02T17:51:06.411Z,92.70
2019-05-02T17:53:41.507Z,92.70
2019-05-02T17:56:05.324Z,92.60
2019-05-02T17:58:33.981Z,92.90
2019-05-02T18:01:04.197Z,92.60
2019-05-02T18:03:35.341Z,92.20
2019-05-02T18:06:07.472Z,92.20
2019-05-02T18:08:33.481Z,92.00
2019-05-02T18:11:02.933Z,91.60
2019-05-02T18:13:33.728Z,91.80
2019-05-02T18:16:02.804Z,91.90
2019-05-02T18:18:31.962Z,91.90
2019-05-02T18:21:02.096Z,91.20
2019-05-02T18:23:32.300Z,91.50
2019-05-02T18:26:04.518Z,91.80
2019-05-02T18:28:31.145Z,91.60
2019-05-02T18:31:02.765Z,91.70
2019-05-02T18:33:29.886Z,91.90
2019-05-02T18:35:58.387Z,91.80
2019-05-02T18:38:26.998Z,92.20
2019-05-02T18:41:00.494Z,92.00
2019-05-02T18:43:26.303Z,91.50
2019-05-02T18:45:58.174Z,91.40
2019-05-02T18:48:25.193Z,91.20
2019-05-02T18:50:53.754Z,91.30
2019-05-02T18:53:24.248Z,91.40
2019-05-02T18:55:56.757Z,91.70
2019-05-02T18:58:23.256Z,91.70
2019-05-02T19:00:52.095Z,91.80
2019-05-02T19:03:22.843Z,91.60
2019-05-02T19:05:51.541Z,91.60
2019-05-02T19:08:29.151Z,91.70
2019-05-02T19:11:04.647Z,91.80
2019-05-02T19:13:22.399Z,91.50
2019-05-02T19:15:50.990Z,91.50
2019-05-02T19:18:19.758Z,91.60
2019-05-02T19:20:57.426Z,91.40
2019-05-02T19:23:24.740Z,91.70
2019-05-02T19:25:53.315Z,91.80
2019-05-02T19:28:23.770Z,91.60
2019-05-02T19:30:52.374Z,91.60
2019-05-02T19:33:23.007Z,91.60
2019-05-02T19:35:52.556Z,91.40
2019-05-02T19:38:24.347Z,91.90
2019-05-02T19:40:52.069Z,92.00
2019-05-02T19:43:22.904Z,92.10
2019-05-02T19:45:53.887Z,92.40
2019-05-02T19:48:22.659Z,92.70
2019-05-02T19:50:51.836Z,93.10
2019-05-02T19:53:22.630Z,93.00
2019-05-02T19:55:52.033Z,93.30
2019-05-02T19:58:20.861Z,93.40
2019-05-02T20:00:49.548Z,93.60
2019-05-02T20:03:21.533Z,93.70
2019-05-02T20:05:48.710Z,93.90
2019-05-02T20:08:22.843Z,94.00
2019-05-02T20:10:49.277Z,93.90
2019-05-02T20:13:20.298Z,93.80
2019-05-02T20:15:57.188Z,94.30
2019-05-02T20:18:22.986Z,94.10
2019-05-02T20:20:53.205Z,94.40
2019-05-02T20:23:28.301Z,94.20
2019-05-02T20:25:52.303Z,94.40
2019-05-02T20:28:21.817Z,94.50
2019-05-02T20:30:52.527Z,94.60
2019-05-02T20:33:22.246Z,95.00
2019-05-02T20:35:52.685Z,95.50
2019-05-02T20:38:21.887Z,95.50
2019-05-02T20:40:52.253Z,95.90
2019-05-02T20:43:22.617Z,96.40
2019-05-02T20:45:52.722Z,96.90
2019-05-02T20:48:22.717Z,96.90
2019-05-02T20:50:51.945Z,97.20
2019-05-02T20:53:30.267Z,97.50
2019-05-02T20:55:52.392Z,97.70
2019-05-02T20:58:22.060Z,97.80
2019-05-02T21:01:05.097Z,97.70
2019-05-02T21:03:21.167Z,98.10
2019-05-02T21:05:54.101Z,98.40
2019-05-02T21:08:24.550Z,98.80
2019-05-02T21:10:55.053Z,98.50
2019-05-02T21:13:23.613Z,98.80
2019-05-02T21:15:52.455Z,99.00
2019-05-02T21:18:22.061Z,98.90
2019-05-02T21:20:52.594Z,98.80
2019-05-02T21:23:21.855Z,98.80
2019-05-02T21:25:52.329Z,98.90
2019-05-02T21:28:22.527Z,99.00
2019-05-02T21:30:52.342Z,99.10
2019-05-02T21:33:32.994Z,99.00
2019-05-02T21:36:01.874Z,99.30
2019-05-02T21:38:31.954Z,99.40
2019-05-02T21:41:00.589Z,99.50
2019-05-02T21:43:29.077Z,99.30
2019-05-02T21:45:57.639Z,99.50
2019-05-02T21:48:27.537Z,99.30
2019-05-02T21:51:06.564Z,99.20
2019-05-02T21:53:54.946Z,99.00
2019-05-02T21:56:26.417Z,99.00
2019-05-02T21:59:13.309Z,99.60
2019-05-02T22:01:48.470Z,99.40
2019-05-02T22:04:17.174Z,99.20
2019-05-02T22:06:45.794Z,99.20
2019-05-02T22:09:14.602Z,99.40
2019-05-02T22:11:43.325Z,99.30
2019-05-02T22:14:13.436Z,99.30
2019-05-02T22:16:42.239Z,99.50
2019-05-02T22:19:11.098Z,99.60
2019-05-02T22:21:39.718Z,99.70
2019-05-02T22:24:11.635Z,99.50
2019-05-02T22:26:38.725Z,99.50
2019-05-02T22:29:07.293Z,99.60
2019-05-02T22:31:35.834Z,99.50
2019-05-02T22:34:04.541Z,99.80
2019-05-02T22:36:33.026Z,99.90
2019-05-02T22:39:18.342Z,99.90
2019-05-02T22:41:46.813Z,99.90
2019-05-02T22:44:15.314Z,99.90
2019-05-02T22:46:44.465Z,99.90
2019-05-02T22:49:15.237Z,99.90
2019-05-02T22:51:44.252Z,99.90
2019-05-02T22:54:26.328Z,99.90
2019-05-02T22:56:43.359Z,99.90
2019-05-02T22:59:12.098Z,99.90
2019-05-02T23:01:42.241Z,99.90
2019-05-02T23:04:12.745Z,99.90
2019-05-02T23:06:43.856Z,99.90
2019-05-02T23:09:12.630Z,99.90
2019-05-02T23:11:42.604Z,99.90
2019-05-02T23:14:11.398Z,99.90
2019-05-02T23:16:42.334Z,99.90
2019-05-02T23:19:12.039Z,99.90
2019-05-02T23:21:42.154Z,99.90
2019-05-02T23:24:14.557Z,99.90
2019-05-02T23:26:47.130Z,99.90
2019-05-02T23:29:17.473Z,99.90
2019-05-02T23:31:46.032Z,99.90
2019-05-02T23:34:14.704Z,99.90
2019-05-02T23:36:43.249Z,99.90
2019-05-02T23:39:12.507Z,99.90
2019-05-02T23:41:42.098Z,99.90
2019-05-02T23:44:12.324Z,99.90
2019-05-02T23:46:42.373Z,99.90
2019-05-02T23:49:12.810Z,99.90
2019-05-02T23:51:42.692Z,99.90
2019-05-02T23:54:12.886Z,99.90
2019-05-02T23:56:42.953Z,99.90
2019-05-02T23:59:11.944Z,99.90
